หน้าหลัก
METAR-TAF:

METAR-TAF

ท่าอากาศยาน :

Växjö, สวีเดน

ละติจูด: 56-51N, ลองจิจูด: 014-50E, ความสูง: 199 ม.

การสังเกตสภาพอากาศปัจจุบัน

รายงานได้ทำขึ้นเมื่อ 24 นาทีที่แล้ว ณ เวลา 23:50 UTC
ลม 3 นอตจากเหนือ
อุณหภูมิ 14°C
ความชื้น 100%
ความกดอากาศ 1013 hPa
ทัศนวิสัย 10 กม. หรือมากกว่า

METAR: ESMX 122350Z AUTO 35003KT 9999 NCD 14/14 Q1013

เวลา: 02:14 (00:14 UTC)

การพยากรณ์

รายงานได้ทำขึ้นเมื่อ 44 นาทีที่แล้ว ณ เวลา 23:30 UTC
การพยากรณ์มีผลตั้งแต่วันที่ 13 ณ เวลา 00 UTC จนถึงวันที่ 13 ณ เวลา 02 UTC
ลม 2 นอตจากทิศทางซึ่งแปรผันได้
ทัศนวิสัย 10 กม. หรือมากกว่า
ไม่มีเมฆต่ำกว่า 1,500 ม. และไม่มีเมฆคิวมูโลนิมบัส

TAF: ESMX 122330Z 1300/1302 VRB02KT CAVOK

สังเกตการณ์สภาพอากาศและพยากรณ์อากาศของสนามบินมากกว่า 4000 แห่ง (รายงาน METAR และ TAF).

สถานีที่ดูได้จะแสดงไว้ด้วยจุดสีเหลืองและสีแดงบนแผนที่.

เลื่อนเมาส์ไปเหนือจุดเพื่อดูชื่อสถานี.

แล้วคลิกเพื่อดูสังเกตการณ์และการพยากรณ์สภาพอากาศ.

ในการเปลี่ยนแผนที่: คลิกที่ปุ่มสีเขียวที่มีกากบาทสีดำเพื่อซูมเข้า; ที่ปุ่มสีเขียวที่มีขีดเพื่อซูมออก; หรือที่ลูกศรสีเขียวเพื่อไปยังแผนที่ที่อยู่ติดกัน.


METAR-TAF: